createdAt,value
2018-03-29T00:00:25.778Z,2.87
2018-03-29T00:02:54.102Z,3.70
2018-03-29T00:05:21.636Z,3.27
2018-03-29T00:07:49.193Z,3.13
2018-03-29T00:10:16.720Z,3.60
2018-03-29T00:12:45.005Z,2.30
2018-03-29T00:15:13.296Z,2.03
2018-03-29T00:17:40.806Z,2.20
2018-03-29T00:20:08.354Z,1.73
2018-03-29T00:22:35.890Z,1.80
2018-03-29T00:25:03.433Z,1.80
2018-03-29T00:27:30.953Z,1.70
2018-03-29T00:29:58.512Z,1.70
2018-03-29T00:32:26.032Z,1.53
2018-03-29T00:34:53.575Z,1.00
2018-03-29T00:37:21.103Z,1.10
2018-03-29T00:39:49.419Z,1.70
2018-03-29T00:42:16.937Z,1.10
2018-03-29T00:44:45.246Z,1.53
2018-03-29T00:47:12.774Z,1.80
2018-03-29T00:49:40.314Z,1.70
2018-03-29T00:52:07.837Z,2.30
2018-03-29T00:54:35.388Z,2.03
2018-03-29T00:57:02.910Z,2.40
2018-03-29T00:59:31.215Z,1.97
2018-03-29T01:01:58.738Z,1.57
2018-03-29T01:04:27.054Z,2.10
2018-03-29T01:06:54.573Z,2.13
2018-03-29T01:09:22.117Z,2.03
2018-03-29T01:11:49.640Z,2.20
2018-03-29T01:14:17.201Z,2.37
2018-03-29T01:16:44.723Z,2.30
2018-03-29T01:19:12.252Z,2.20
2018-03-29T01:21:39.777Z,2.07
2018-03-29T01:24:07.498Z,2.13
2018-03-29T01:26:35.025Z,2.13
2018-03-29T01:29:02.567Z,1.97
2018-03-29T01:31:30.094Z,2.00
2018-03-29T01:33:57.640Z,2.10
2018-03-29T01:36:25.174Z,1.57
2018-03-29T01:38:53.452Z,2.00
2018-03-29T01:41:21.754Z,2.00
2018-03-29T01:43:49.278Z,1.97
2018-03-29T01:46:17.593Z,2.10
2018-03-29T01:48:45.113Z,2.20
2018-03-29T01:51:13.417Z,2.20
2018-03-29T01:53:40.936Z,2.17
2018-03-29T01:56:09.250Z,1.83
2018-03-29T01:58:36.778Z,2.10
2018-03-29T02:01:05.082Z,2.10
2018-03-29T02:03:32.602Z,2.60
2018-03-29T02:06:00.150Z,1.93
2018-03-29T02:08:27.722Z,1.90
2018-03-29T02:10:55.261Z,2.57
2018-03-29T02:13:22.773Z,2.43
2018-03-29T02:15:50.315Z,2.13
2018-03-29T02:18:17.838Z,2.27
2018-03-29T02:20:45.372Z,2.70
2018-03-29T02:23:12.888Z,3.00
2018-03-29T02:25:41.189Z,2.53
2018-03-29T02:28:08.709Z,3.37
2018-03-29T02:30:37.012Z,3.53
2018-03-29T02:36:05.269Z,3.60
2018-03-29T02:38:32.795Z,4.33
2018-03-29T02:41:00.330Z,3.53
2018-03-29T02:43:28.669Z,3.53
2018-03-29T02:45:56.202Z,3.67
2018-03-29T02:48:23.714Z,3.17
2018-03-29T02:50:51.264Z,3.63
2018-03-29T02:53:19.544Z,3.93
2018-03-29T02:55:47.098Z,3.90
2018-03-29T02:58:15.380Z,4.40
2018-03-29T03:00:42.920Z,4.33
2018-03-29T03:03:11.209Z,3.97
2018-03-29T03:05:39.507Z,4.50
2018-03-29T03:08:07.026Z,4.53
2018-03-29T03:10:35.332Z,4.03
2018-03-29T03:13:02.866Z,4.13
2018-03-29T03:15:31.185Z,4.40
2018-03-29T03:17:58.700Z,3.00
2018-03-29T03:20:27.004Z,4.37
2018-03-29T03:22:54.520Z,4.07
2018-03-29T03:25:22.066Z,3.83
2018-03-29T03:27:49.588Z,4.20
2018-03-29T03:30:17.165Z,3.63
2018-03-29T03:32:44.685Z,4.40
2018-03-29T03:35:12.233Z,3.70
2018-03-29T03:37:40.520Z,3.73
2018-03-29T03:40:08.062Z,4.40
2018-03-29T03:42:36.356Z,4.03
2018-03-29T03:45:03.902Z,4.47
2018-03-29T03:47:32.190Z,4.27
2018-03-29T03:49:59.733Z,4.80
2018-03-29T03:52:28.010Z,4.57
2018-03-29T03:54:56.314Z,5.80
2018-03-29T03:57:23.833Z,4.23
2018-03-29T03:59:52.140Z,4.60
2018-03-29T04:02:19.667Z,5.70
2018-03-29T04:04:47.961Z,4.77
2018-03-29T04:07:16.261Z,4.37
2018-03-29T04:09:43.790Z,5.23
2018-03-29T04:12:12.090Z,3.17
2018-03-29T04:14:39.616Z,4.80
2018-03-29T04:17:07.926Z,4.53
2018-03-29T04:19:35.445Z,4.80
2018-03-29T04:22:03.750Z,5.40
2018-03-29T04:24:31.270Z,4.27
2018-03-29T04:26:59.581Z,4.90
2018-03-29T04:29:27.119Z,4.73
2018-03-29T04:31:55.440Z,4.30
2018-03-29T04:34:22.966Z,4.33
2018-03-29T04:36:50.517Z,4.20
2018-03-29T04:39:18.806Z,4.27
2018-03-29T04:41:46.362Z,3.93
2018-03-29T04:44:13.886Z,4.20
2018-03-29T04:46:41.429Z,3.73
2018-03-29T04:49:08.979Z,4.40
2018-03-29T04:51:36.493Z,4.40
2018-03-29T04:54:04.037Z,4.13
2018-03-29T04:56:32.350Z,3.77
2018-03-29T04:58:59.867Z,3.47
2018-03-29T05:01:28.168Z,5.23
2018-03-29T05:03:55.703Z,4.27
2018-03-29T05:06:24.019Z,4.20
2018-03-29T05:08:51.547Z,3.73
2018-03-29T05:11:19.849Z,4.33
2018-03-29T05:13:47.371Z,4.00
2018-03-29T05:16:15.672Z,4.30
2018-03-29T05:18:43.210Z,4.33
2018-03-29T05:21:10.750Z,4.47
2018-03-29T05:23:38.261Z,3.80
2018-03-29T05:26:06.728Z,3.83
2018-03-29T05:28:34.250Z,4.03
2018-03-29T05:31:01.816Z,3.93
2018-03-29T05:33:29.346Z,4.20
2018-03-29T05:35:56.889Z,4.20
2018-03-29T05:38:24.415Z,3.93
2018-03-29T05:40:52.018Z,3.97
2018-03-29T05:43:19.478Z,3.97
2018-03-29T05:45:47.022Z,4.40
2018-03-29T05:48:14.545Z,4.30
2018-03-29T05:50:42.085Z,4.37
2018-03-29T05:53:10.365Z,4.30
2018-03-29T05:55:38.671Z,3.97
2018-03-29T05:58:06.194Z,4.27
2018-03-29T06:00:34.504Z,4.63
2018-03-29T06:03:05.128Z,4.37
2018-03-29T06:05:33.408Z,4.20
2018-03-29T06:08:00.950Z,4.33
2018-03-29T06:10:28.486Z,4.43
2018-03-29T06:12:56.798Z,3.77
2018-03-29T06:15:24.317Z,4.90
2018-03-29T06:17:57.563Z,4.97
2018-03-29T06:20:25.088Z,4.43
2018-03-29T06:22:53.394Z,4.23
2018-03-29T06:25:20.911Z,4.27
2018-03-29T06:27:49.237Z,4.37
2018-03-29T06:30:16.759Z,3.57
2018-03-29T06:32:44.301Z,3.97
2018-03-29T06:35:12.602Z,3.87
2018-03-29T06:37:40.146Z,4.10
2018-03-29T06:40:08.442Z,3.73
2018-03-29T06:42:35.980Z,3.73
2018-03-29T06:45:04.262Z,4.20
2018-03-29T06:47:31.810Z,4.13
2018-03-29T06:50:00.115Z,3.47
2018-03-29T06:52:27.665Z,4.80
2018-03-29T06:54:55.194Z,3.97
2018-03-29T06:57:23.496Z,3.87
2018-03-29T06:59:51.030Z,3.27
2018-03-29T07:02:19.347Z,3.70
2018-03-29T07:04:46.910Z,3.90
2018-03-29T07:07:14.456Z,3.80
2018-03-29T07:09:41.982Z,3.60
2018-03-29T07:12:10.278Z,3.63
2018-03-29T07:14:37.813Z,3.67
2018-03-29T07:17:06.113Z,4.53
2018-03-29T07:19:33.650Z,4.00
2018-03-29T07:22:01.949Z,3.97
2018-03-29T07:24:29.480Z,4.17
2018-03-29T07:26:57.024Z,4.17
2018-03-29T07:29:24.548Z,3.87
2018-03-29T07:31:52.087Z,4.17
2018-03-29T07:34:19.600Z,3.90
2018-03-29T07:36:47.141Z,4.03
2018-03-29T07:39:14.668Z,3.97
2018-03-29T07:41:42.212Z,4.20
2018-03-29T07:44:09.778Z,4.20
2018-03-29T07:46:38.057Z,4.30
2018-03-29T07:49:05.573Z,4.33
2018-03-29T07:51:33.885Z,4.03
2018-03-29T07:54:01.411Z,4.87
2018-03-29T07:56:29.721Z,4.27
2018-03-29T07:58:57.252Z,4.33
2018-03-29T08:01:25.564Z,4.57
2018-03-29T08:03:53.094Z,4.50
2018-03-29T08:06:21.394Z,4.33
2018-03-29T08:08:48.950Z,4.33
2018-03-29T08:11:16.482Z,4.20
2018-03-29T08:13:44.818Z,4.20
2018-03-29T08:16:12.344Z,4.37
2018-03-29T08:18:39.891Z,4.30
2018-03-29T08:21:07.440Z,4.10
2018-03-29T08:23:34.991Z,4.10
2018-03-29T08:26:03.282Z,4.10
2018-03-29T08:28:30.829Z,3.63
2018-03-29T08:30:59.122Z,4.33
2018-03-29T08:33:26.674Z,4.23
2018-03-29T08:35:54.210Z,4.07
2018-03-29T08:38:22.527Z,3.87
2018-03-29T08:40:50.057Z,4.00
2018-03-29T08:43:17.637Z,4.07
2018-03-29T08:45:45.161Z,3.40
2018-03-29T08:48:12.708Z,3.40
2018-03-29T08:50:40.232Z,3.90
2018-03-29T08:53:07.774Z,3.23
2018-03-29T08:55:35.289Z,3.57
2018-03-29T08:58:02.829Z,3.90
2018-03-29T09:00:30.350Z,4.40
2018-03-29T09:02:57.903Z,4.40
2018-03-29T09:05:25.438Z,3.63
2018-03-29T09:07:53.728Z,4.13
2018-03-29T09:10:21.246Z,4.03
2018-03-29T09:12:48.781Z,4.43
2018-03-29T09:15:16.307Z,4.20
2018-03-29T09:17:43.847Z,4.20
2018-03-29T09:20:12.132Z,3.90
2018-03-29T09:22:40.445Z,3.43
2018-03-29T09:25:07.961Z,3.27
2018-03-29T09:27:35.496Z,3.90
2018-03-29T09:30:03.009Z,3.90
2018-03-29T09:32:30.560Z,3.63
2018-03-29T09:34:58.070Z,3.23
2018-03-29T09:37:25.631Z,3.37
2018-03-29T09:39:53.149Z,3.00
2018-03-29T09:42:20.702Z,3.07
2018-03-29T09:44:48.232Z,2.70
2018-03-29T09:47:15.785Z,2.70
2018-03-29T09:49:44.074Z,2.80
2018-03-29T09:52:11.626Z,2.80
2018-03-29T09:54:39.154Z,2.37
2018-03-29T09:57:06.684Z,2.90
2018-03-29T09:59:34.214Z,2.43
2018-03-29T10:02:07.362Z,2.60
2018-03-29T10:04:35.361Z,3.10
2018-03-29T10:07:02.896Z,2.47
2018-03-29T10:09:31.211Z,2.23
2018-03-29T10:11:58.752Z,2.10
2018-03-29T10:14:26.297Z,2.80
2018-03-29T10:16:54.588Z,2.50
2018-03-29T10:19:22.130Z,2.83
2018-03-29T10:21:50.428Z,3.10
2018-03-29T10:24:17.966Z,2.80
2018-03-29T10:26:46.261Z,2.60
2018-03-29T10:29:13.814Z,2.80
2018-03-29T10:31:41.347Z,2.60
2018-03-29T10:34:08.885Z,2.90
2018-03-29T10:36:36.419Z,3.10
2018-03-29T10:39:03.982Z,3.10
2018-03-29T10:41:31.514Z,2.93
2018-03-29T10:43:59.062Z,2.70
2018-03-29T10:46:26.594Z,3.10
2018-03-29T10:48:54.132Z,2.80
2018-03-29T10:51:21.656Z,3.07
2018-03-29T10:53:49.247Z,3.17
2018-03-29T10:56:16.773Z,2.63
2018-03-29T10:58:44.321Z,3.17
2018-03-29T11:01:11.851Z,2.97
2018-03-29T11:03:40.169Z,3.10
2018-03-29T11:06:07.702Z,2.67
2018-03-29T11:08:35.243Z,2.43
2018-03-29T11:11:03.540Z,2.90
2018-03-29T11:13:31.087Z,2.62
2018-03-29T11:15:58.647Z,3.08
2018-03-29T11:18:26.963Z,2.58
2018-03-29T11:20:54.502Z,2.25
2018-03-29T11:23:22.063Z,2.30
2018-03-29T11:25:49.591Z,3.00
2018-03-29T11:28:17.153Z,2.47
2018-03-29T11:30:45.454Z,2.97
2018-03-29T11:33:13.017Z,2.40
2018-03-29T11:35:40.546Z,2.28
2018-03-29T11:38:08.869Z,2.67
2018-03-29T11:40:36.410Z,2.50
2018-03-29T11:43:03.962Z,2.50
2018-03-29T11:45:31.487Z,2.42
2018-03-29T11:47:59.797Z,2.20
2018-03-29T11:50:27.320Z,2.12
2018-03-29T11:52:54.904Z,2.20
2018-03-29T11:55:23.201Z,2.33
2018-03-29T11:57:51.488Z,2.55
2018-03-29T12:00:19.044Z,2.60
2018-03-29T12:02:46.570Z,2.35
2018-03-29T12:05:14.126Z,2.17
2018-03-29T12:07:42.427Z,2.67
2018-03-29T12:10:09.981Z,2.15
2018-03-29T12:12:37.509Z,2.33
2018-03-29T12:15:05.827Z,2.10
2018-03-29T12:17:33.370Z,1.87
2018-03-29T12:20:11.357Z,2.08
2018-03-29T12:22:38.880Z,2.50
2018-03-29T12:25:06.426Z,2.00
2018-03-29T12:27:33.956Z,2.15
2018-03-29T12:30:01.505Z,2.30
2018-03-29T12:32:29.028Z,2.10
2018-03-29T12:34:57.341Z,2.22
2018-03-29T12:37:24.864Z,2.28
2018-03-29T12:39:53.258Z,2.35
2018-03-29T12:42:20.804Z,2.37
2018-03-29T12:44:49.180Z,2.15
2018-03-29T12:47:16.689Z,2.30
2018-03-29T12:49:44.238Z,2.08
2018-03-29T12:52:11.813Z,2.30
2018-03-29T12:54:51.237Z,2.40
2018-03-29T12:57:30.626Z,2.25
2018-03-29T12:59:58.937Z,2.70
2018-03-29T13:02:26.470Z,2.35
2018-03-29T13:04:54.014Z,2.03
2018-03-29T13:07:21.538Z,2.55
2018-03-29T13:09:49.094Z,2.90
2018-03-29T13:12:16.613Z,2.37
2018-03-29T13:14:44.913Z,2.40
2018-03-29T13:17:12.426Z,2.30
2018-03-29T13:19:40.744Z,2.20
2018-03-29T13:22:08.286Z,2.50
2018-03-29T13:24:35.859Z,2.30
2018-03-29T13:27:03.431Z,2.17
2018-03-29T13:29:31.001Z,2.23
2018-03-29T13:31:58.525Z,2.30
2018-03-29T13:34:26.079Z,2.60
2018-03-29T13:36:53.604Z,2.53
2018-03-29T13:39:21.149Z,2.40
2018-03-29T13:41:48.669Z,2.37
2018-03-29T13:44:16.247Z,2.30
2018-03-29T13:46:44.067Z,2.20
2018-03-29T13:49:11.633Z,2.17
2018-03-29T13:51:39.224Z,2.10
2018-03-29T13:54:06.780Z,1.97
2018-03-29T13:56:34.302Z,2.07
2018-03-29T13:59:01.866Z,2.80
2018-03-29T14:01:29.402Z,2.20
2018-03-29T14:03:57.731Z,2.07
2018-03-29T14:06:25.262Z,1.87
2018-03-29T14:08:52.796Z,1.70
2018-03-29T14:11:20.322Z,2.57
2018-03-29T14:13:47.892Z,2.23
2018-03-29T14:16:15.424Z,2.17
2018-03-29T14:18:42.950Z,2.13
2018-03-29T14:21:10.492Z,2.60
2018-03-29T14:23:38.798Z,2.10
2018-03-29T14:26:06.352Z,2.23
2018-03-29T14:28:33.871Z,1.90
2018-03-29T14:31:01.409Z,2.60
2018-03-29T14:33:28.970Z,2.23
2018-03-29T14:35:56.767Z,2.57
2018-03-29T14:38:24.451Z,2.50
2018-03-29T14:40:52.082Z,3.23
2018-03-29T14:43:20.577Z,2.37
2018-03-29T14:45:48.221Z,2.77
2018-03-29T14:48:16.622Z,2.50
2018-03-29T14:50:44.257Z,2.30
2018-03-29T14:53:12.561Z,2.53
2018-03-29T14:55:40.212Z,2.83
2018-03-29T14:58:08.018Z,2.60
2018-03-29T15:00:35.690Z,2.27
2018-03-29T15:03:04.491Z,2.13
2018-03-29T15:05:32.103Z,2.53
2018-03-29T15:07:59.642Z,2.30
2018-03-29T15:10:27.258Z,2.50
2018-03-29T15:12:54.795Z,2.97
2018-03-29T15:15:23.850Z,2.67
2018-03-29T15:17:52.428Z,2.27
2018-03-29T15:20:20.748Z,2.70
2018-03-29T15:22:48.285Z,2.60
2018-03-29T15:25:15.843Z,3.07
2018-03-29T15:27:43.378Z,2.40
2018-03-29T15:30:11.735Z,2.90
2018-03-29T15:32:40.081Z,3.00
2018-03-29T15:35:07.702Z,2.80
2018-03-29T15:37:35.251Z,2.70
2018-03-29T15:40:03.577Z,3.10
2018-03-29T15:42:31.187Z,2.87
2018-03-29T15:44:59.530Z,2.80
2018-03-29T15:47:27.219Z,2.33
2018-03-29T15:49:55.553Z,3.20
2018-03-29T15:52:23.105Z,2.20
2018-03-29T15:54:50.658Z,2.77
2018-03-29T15:57:18.274Z,2.63
2018-03-29T15:59:45.806Z,2.40
2018-03-29T16:02:13.341Z,2.53
2018-03-29T16:04:40.984Z,2.77
2018-03-29T16:07:08.539Z,2.60
2018-03-29T16:09:36.116Z,2.43
2018-03-29T16:12:03.662Z,2.90
2018-03-29T16:14:31.251Z,2.60
2018-03-29T16:16:58.823Z,2.00
2018-03-29T16:19:26.373Z,2.33
2018-03-29T16:21:53.922Z,2.60
2018-03-29T16:24:21.525Z,3.20
2018-03-29T16:26:49.042Z,2.80
2018-03-29T16:29:16.586Z,2.90
2018-03-29T16:31:44.132Z,2.57
2018-03-29T16:34:11.658Z,2.53
2018-03-29T16:36:39.970Z,2.30
2018-03-29T16:39:07.487Z,2.30
2018-03-29T16:41:35.038Z,2.13
2018-03-29T16:44:02.566Z,1.60
2018-03-29T16:46:30.122Z,2.10
2018-03-29T16:48:57.652Z,1.50
2018-03-29T16:51:25.195Z,2.00
2018-03-29T16:53:53.489Z,1.67
2018-03-29T16:56:21.049Z,1.60
2018-03-29T16:58:48.585Z,1.77
2018-03-29T17:01:16.885Z,1.70
2018-03-29T17:03:44.410Z,1.30
2018-03-29T17:06:12.722Z,1.57
2018-03-29T17:08:40.237Z,1.70
2018-03-29T17:11:07.774Z,1.73
2018-03-29T17:13:35.288Z,1.30
2018-03-29T17:16:02.832Z,1.33
2018-03-29T17:18:31.134Z,1.07
2018-03-29T17:20:58.680Z,1.23
2018-03-29T17:23:26.246Z,0.97
2018-03-29T17:25:53.801Z,0.93
2018-03-29T17:28:21.337Z,1.23
2018-03-29T17:30:49.672Z,1.70
2018-03-29T17:33:17.198Z,1.50
2018-03-29T17:35:44.747Z,1.40
2018-03-29T17:38:12.272Z,1.50
2018-03-29T17:40:39.814Z,1.50
2018-03-29T17:43:07.329Z,0.90
2018-03-29T17:45:34.877Z,1.23
2018-03-29T17:48:02.410Z,1.37
2018-03-29T17:50:30.745Z,2.30
2018-03-29T17:52:58.270Z,1.73
2018-03-29T17:55:25.824Z,1.83
2018-03-29T17:57:54.107Z,1.30
2018-03-29T18:00:21.649Z,1.50
2018-03-29T18:02:49.186Z,1.10
2018-03-29T18:05:16.741Z,2.37
2018-03-29T18:07:44.261Z,2.67
2018-03-29T18:10:11.777Z,2.30
2018-03-29T18:12:40.089Z,4.73
2018-03-29T18:15:07.621Z,3.83
2018-03-29T18:17:35.931Z,3.47
2018-03-29T18:20:03.449Z,3.90
2018-03-29T18:22:31.748Z,4.60
2018-03-29T18:24:59.274Z,5.53
2018-03-29T18:27:26.826Z,4.43
2018-03-29T18:29:54.356Z,4.27
2018-03-29T18:32:21.889Z,4.67
2018-03-29T18:34:49.405Z,6.43
2018-03-29T18:37:16.960Z,3.90
2018-03-29T18:39:44.497Z,7.83
2018-03-29T18:42:12.040Z,4.57
2018-03-29T18:44:39.553Z,3.60
2018-03-29T18:47:07.865Z,4.73
2018-03-29T18:49:35.401Z,6.33
2018-03-29T18:52:02.954Z,6.97
2018-03-29T18:54:30.811Z,7.90
2018-03-29T18:56:58.558Z,6.50
2018-03-29T18:59:26.176Z,6.73
2018-03-29T19:01:53.834Z,5.57
2018-03-29T19:04:21.566Z,9.37
2018-03-29T19:06:49.337Z,11.00
2018-03-29T19:09:16.961Z,9.20
2018-03-29T19:11:44.650Z,8.43
2018-03-29T19:14:12.410Z,6.77
2018-03-29T19:16:40.112Z,5.00
2018-03-29T19:19:07.803Z,3.90
2018-03-29T19:21:35.383Z,3.53
2018-03-29T19:24:03.732Z,4.40
2018-03-29T19:26:31.615Z,4.10
2018-03-29T19:28:59.275Z,3.93
2018-03-29T19:31:27.736Z,4.00
2018-03-29T19:33:55.447Z,3.60
2018-03-29T19:36:23.107Z,3.20
2018-03-29T19:38:50.695Z,3.83
2018-03-29T19:41:18.367Z,4.13
2018-03-29T19:43:46.018Z,3.93
2018-03-29T19:46:13.638Z,3.73
2018-03-29T19:48:41.206Z,4.33
2018-03-29T19:51:09.062Z,3.70
2018-03-29T19:53:36.814Z,4.00
2018-03-29T19:56:05.138Z,3.77
2018-03-29T19:58:32.689Z,3.57
2018-03-29T20:01:00.246Z,3.47
2018-03-29T20:03:27.802Z,3.30
2018-03-29T20:05:55.343Z,3.70
2018-03-29T20:08:22.900Z,4.30
2018-03-29T20:10:51.209Z,3.40
2018-03-29T20:13:18.756Z,3.40
2018-03-29T20:15:46.275Z,3.57
2018-03-29T20:18:13.834Z,3.40
2018-03-29T20:20:42.133Z,3.03
2018-03-29T20:23:09.691Z,3.20
2018-03-29T20:25:37.218Z,3.60
2018-03-29T20:28:04.776Z,3.13
2018-03-29T20:30:32.307Z,3.30
2018-03-29T20:32:59.849Z,3.17
2018-03-29T20:35:27.384Z,3.70
2018-03-29T20:37:54.930Z,3.10
2018-03-29T20:40:23.236Z,3.17
2018-03-29T20:42:50.807Z,3.20
2018-03-29T20:45:18.340Z,3.03
2018-03-29T20:47:45.881Z,3.60
2018-03-29T20:50:14.188Z,3.93
2018-03-29T20:52:41.738Z,3.80
2018-03-29T20:55:09.274Z,3.90
2018-03-29T20:57:37.816Z,3.47
2018-03-29T21:00:05.347Z,3.57
2018-03-29T21:02:32.920Z,3.60
2018-03-29T21:05:00.452Z,3.67
2018-03-29T21:07:28.021Z,4.00
2018-03-29T21:09:55.560Z,3.57
2018-03-29T21:12:23.131Z,4.67
2018-03-29T21:14:50.665Z,3.73
2018-03-29T21:17:18.230Z,3.83
2018-03-29T21:19:46.542Z,3.47
2018-03-29T21:22:14.111Z,3.97
2018-03-29T21:24:41.641Z,3.53
2018-03-29T21:27:09.187Z,4.20
2018-03-29T21:29:36.717Z,4.33
2018-03-29T21:32:04.307Z,3.67
2018-03-29T21:34:31.867Z,4.20
2018-03-29T21:36:59.433Z,4.37
2018-03-29T21:39:26.956Z,3.70
2018-03-29T21:41:54.508Z,4.03
2018-03-29T21:44:22.052Z,3.73
2018-03-29T21:46:49.616Z,5.03
2018-03-29T21:49:17.142Z,3.97
2018-03-29T21:51:44.696Z,4.80
2018-03-29T21:54:12.235Z,3.80
2018-03-29T21:56:39.792Z,4.03
2018-03-29T21:59:07.338Z,3.70
2018-03-29T22:01:35.662Z,3.93
2018-03-29T22:04:03.249Z,3.93
2018-03-29T22:06:30.801Z,3.87
2018-03-29T22:08:58.362Z,4.00
2018-03-29T22:11:25.882Z,3.87
2018-03-29T22:13:54.189Z,3.93
2018-03-29T22:16:21.716Z,3.57
2018-03-29T22:18:49.266Z,4.10
2018-03-29T22:21:16.801Z,4.33
2018-03-29T22:23:45.134Z,3.73
2018-03-29T22:26:12.661Z,3.97
2018-03-29T22:28:40.220Z,4.27
2018-03-29T22:31:07.740Z,4.23
2018-03-29T22:33:36.049Z,4.20
2018-03-29T22:36:03.570Z,3.97
2018-03-29T22:38:31.116Z,4.83
2018-03-29T22:40:58.658Z,5.10
2018-03-29T22:43:26.196Z,3.63
2018-03-29T22:45:53.734Z,3.10
2018-03-29T22:48:21.285Z,3.20
2018-03-29T22:50:48.823Z,2.70
2018-03-29T22:53:16.381Z,3.03
2018-03-29T22:55:44.665Z,3.17
2018-03-29T22:58:12.978Z,4.40
2018-03-29T23:00:40.510Z,3.93
2018-03-29T23:03:08.825Z,3.80
2018-03-29T23:05:36.357Z,3.73
2018-03-29T23:08:03.952Z,3.37
2018-03-29T23:10:31.469Z,3.90
2018-03-29T23:12:59.008Z,3.57
2018-03-29T23:15:27.305Z,3.43
2018-03-29T23:17:54.839Z,3.80
2018-03-29T23:20:23.171Z,4.30
2018-03-29T23:22:50.688Z,3.73
2018-03-29T23:25:18.204Z,3.97
2018-03-29T23:27:45.748Z,3.77
2018-03-29T23:30:13.303Z,3.83
2018-03-29T23:32:40.836Z,4.27
2018-03-29T23:35:08.356Z,4.40
2018-03-29T23:37:36.665Z,4.20
2018-03-29T23:40:04.183Z,4.10
2018-03-29T23:42:31.722Z,5.00
2018-03-29T23:44:59.253Z,4.80
2018-03-29T23:47:26.788Z,4.50
2018-03-29T23:49:55.077Z,5.20
2018-03-29T23:52:22.596Z,4.40
2018-03-29T23:54:50.908Z,5.50
2018-03-29T23:57:19.232Z,6.00
2018-03-29T23:59:46.778Z,5.20
